Terminal Aerodrome Forecast
Issued by NWS

Home | Current Version | Previous Version | Text Only | Print | Product List | Glossary On
Versions: 1 2 3 4 5 6 7 8 9 10 11 12 13 14 15 16
000
FTUS46 KLOX 252300
TAFOXR
TAF
KOXR 252332Z 2600/2624 25008KT P6SM FEW010 SCT150
     FM260400 VRB03KT P6SM SCT010 SCT150
     FM260700 VRB03KT 5SM BR OVC008
     FM261600 VRB05KT P6SM BKN012
     FM261900 25010KT P6SM SCT015 BKN150=

USA.gov is the U.S. government's official web portal to all federal, state and local government web resources and services.